Time;durP1;ratioP1;P1;durP2;ratioP2;P2;SDS_P1;SDS_P2;PMS_P1;PMS_P2;Temp;Humidity;BMP_temperature;BMP_pressure;BME280_temperature;BME280_humidity;BME280_pressure;Samples;Min_cycle;Max_cycle;Signal;HPM_P1;HPM_P2
2024/02/19 00:01:05;;;;;;;5.70;3.40;;;7.50;99.90;;;;;;6214944;23;20008;-77
2024/02/19 00:03:31;;;;;;;4.87;2.87;;;7.50;99.90;;;;;;6214990;23;20319;-76
2024/02/19 00:05:57;;;;;;;4.20;3.33;;;7.50;99.90;;;;;;6214314;23;20008;-76
2024/02/19 00:08:23;;;;;;;5.40;3.57;;;7.50;99.90;;;;;;6214598;23;20486;-77
2024/02/19 00:10:51;;;;;;;5.37;2.90;;;7.50;99.90;;;;;;6215038;23;20066;-77
2024/02/19 00:13:18;;;;;;;5.23;3.10;;;7.50;99.90;;;;;;6214547;23;20001;-76
2024/02/19 00:15:43;;;;;;;4.50;2.83;;;7.40;99.90;;;;;;6213910;23;20001;-76
2024/02/19 00:18:10;;;;;;;4.63;3.20;;;7.50;99.90;;;;;;6214494;23;20324;-76
2024/02/19 00:20:35;;;;;;;5.70;3.50;;;7.40;99.90;;;;;;6214568;23;20008;-77
2024/02/19 00:23:01;;;;;;;3.90;2.70;;;7.40;99.90;;;;;;6214232;23;20446;-77
2024/02/19 00:25:26;;;;;;;5.87;3.00;;;7.40;99.90;;;;;;6214229;23;20051;-77
2024/02/19 00:27:52;;;;;;;3.73;3.10;;;7.40;99.90;;;;;;6214533;23;20016;-76
2024/02/19 00:30:17;;;;;;;4.53;2.83;;;7.40;99.90;;;;;;6214789;23;19997;-76
2024/02/19 00:32:43;;;;;;;4.60;3.00;;;7.40;99.90;;;;;;6214646;23;20036;-77
2024/02/19 00:35:08;;;;;;;4.67;2.70;;;7.50;99.90;;;;;;6214095;23;19997;-76
2024/02/19 00:37:34;;;;;;;4.83;2.87;;;7.40;99.90;;;;;;6214517;23;20332;-77
2024/02/19 00:39:59;;;;;;;3.93;2.40;;;7.40;99.90;;;;;;6214620;23;20367;-76
2024/02/19 00:42:25;;;;;;;4.27;2.67;;;7.40;99.90;;;;;;6213963;23;20084;-77
2024/02/19 00:44:51;;;;;;;3.77;2.83;;;7.40;99.90;;;;;;6213621;23;20040;-77
2024/02/19 00:47:16;;;;;;;4.97;2.97;;;7.40;99.90;;;;;;6214571;23;20013;-76
2024/02/19 00:49:42;;;;;;;4.40;2.50;;;7.40;99.90;;;;;;6214573;23;20008;-77
2024/02/19 00:52:08;;;;;;;4.20;2.57;;;7.40;99.90;;;;;;6215072;23;20000;-77
2024/02/19 00:54:34;;;;;;;4.70;2.30;;;7.40;99.90;;;;;;6214091;23;20000;-77
2024/02/19 00:56:59;;;;;;;3.50;2.50;;;7.40;99.90;;;;;;6214540;23;20309;-76
2024/02/19 00:59:25;;;;;;;2.73;2.00;;;7.30;99.90;;;;;;6214257;23;20449;-77
2024/02/19 01:01:51;;;;;;;3.97;2.37;;;7.40;99.90;;;;;;6214729;23;20009;-77
2024/02/19 01:04:16;;;;;;;3.60;2.67;;;7.40;99.90;;;;;;6213562;23;20011;-77
2024/02/19 01:06:42;;;;;;;3.00;2.10;;;7.40;99.90;;;;;;6214575;23;20001;-76
2024/02/19 01:09:08;;;;;;;2.83;2.00;;;7.40;99.90;;;;;;6214538;23;20024;-77
2024/02/19 01:11:34;;;;;;;2.73;1.70;;;7.40;99.90;;;;;;6214348;23;20035;-77
2024/02/19 01:14:00;;;;;;;4.73;1.63;;;7.40;99.90;;;;;;6213712;23;20082;-76
2024/02/19 01:16:25;;;;;;;3.00;1.40;;;7.40;99.90;;;;;;6213561;23;20016;-77
2024/02/19 01:18:51;;;;;;;2.70;1.30;;;7.40;99.90;;;;;;6213797;23;20091;-77
2024/02/19 01:21:19;;;;;;;2.40;1.57;;;7.40;99.90;;;;;;6214358;23;19996;-77
2024/02/19 01:23:45;;;;;;;1.80;1.33;;;7.40;99.90;;;;;;6213805;23;20005;-77
2024/02/19 01:26:10;;;;;;;1.93;1.23;;;7.30;99.90;;;;;;6213752;23;20056;-77
2024/02/19 01:28:36;;;;;;;2.00;1.17;;;7.30;99.90;;;;;;6213880;23;20044;-77
2024/02/19 01:31:02;;;;;;;3.13;1.17;;;7.30;99.90;;;;;;6214375;23;20004;-77
2024/02/19 01:33:27;;;;;;;1.63;1.10;;;7.30;99.90;;;;;;6213502;23;19996;-77
2024/02/19 01:35:53;;;;;;;1.33;0.90;;;7.30;99.90;;;;;;6213996;23;20043;-77
2024/02/19 01:38:18;;;;;;;2.50;1.33;;;7.30;99.90;;;;;;6212095;23;20075;-76
2024/02/19 01:40:44;;;;;;;1.57;1.20;;;7.30;99.90;;;;;;6212077;23;20439;-77
2024/02/19 01:43:10;;;;;;;2.33;1.23;;;7.30;99.90;;;;;;6211668;23;19997;-76
2024/02/19 01:45:37;;;;;;;1.60;1.20;;;7.30;99.90;;;;;;6213390;23;20423;-76
2024/02/19 01:48:02;;;;;;;1.40;1.30;;;7.30;99.90;;;;;;6212434;23;20028;-76
2024/02/19 01:50:33;;;;;;;1.40;1.03;;;7.30;99.90;;;;;;6213664;23;20009;-76
2024/02/19 01:53:02;;;;;;;1.53;1.00;;;7.30;99.90;;;;;;6213759;23;20005;-76
2024/02/19 01:55:28;;;;;;;1.33;0.90;;;7.30;99.90;;;;;;6213079;23;20000;-76
2024/02/19 01:57:55;;;;;;;2.47;1.10;;;7.20;99.90;;;;;;6214099;23;20054;-76
2024/02/19 02:00:21;;;;;;;1.13;0.90;;;7.20;99.90;;;;;;6214262;23;20020;-76
2024/02/19 02:02:47;;;;;;;1.47;1.00;;;7.20;99.90;;;;;;6213589;23;20007;-77
2024/02/19 02:05:13;;;;;;;1.30;0.80;;;7.20;99.90;;;;;;6213083;23;20400;-77
2024/02/19 02:07:41;;;;;;;2.30;0.80;;;7.20;99.90;;;;;;6212621;23;20051;-77
2024/02/19 02:10:07;;;;;;;1.40;0.77;;;7.20;99.90;;;;;;6212473;23;20074;-76
2024/02/19 02:12:33;;;;;;;0.60;0.60;;;7.20;99.90;;;;;;6214067;23;20021;-77
2024/02/19 02:14:58;;;;;;;0.80;0.70;;;7.20;99.90;;;;;;6213247;23;20000;-76
2024/02/19 02:17:24;;;;;;;0.77;0.60;;;7.20;99.90;;;;;;6213141;23;20004;-77
2024/02/19 02:19:49;;;;;;;0.60;0.60;;;7.20;99.90;;;;;;6213802;23;20423;-77
2024/02/19 02:22:15;;;;;;;1.13;0.70;;;7.20;99.90;;;;;;6213434;23;20378;-76
2024/02/19 02:24:41;;;;;;;0.60;0.60;;;7.10;99.90;;;;;;6212992;23;20099;-76
2024/02/19 02:27:08;;;;;;;0.60;0.60;;;7.20;99.90;;;;;;6213718;23;20079;-76
2024/02/19 02:29:33;;;;;;;3.10;0.70;;;7.10;99.90;;;;;;6213741;23;20054;-77
2024/02/19 02:31:59;;;;;;;1.07;0.60;;;7.10;99.90;;;;;;6213858;23;20021;-77
2024/02/19 02:34:24;;;;;;;0.77;0.67;;;7.10;99.90;;;;;;6213045;23;20044;-77
2024/02/19 02:36:50;;;;;;;0.90;0.80;;;7.00;99.90;;;;;;6213055;23;20100;-76
2024/02/19 02:39:16;;;;;;;1.17;0.80;;;7.00;99.90;;;;;;6213623;23;20108;-77
2024/02/19 02:41:41;;;;;;;0.70;0.70;;;7.00;99.90;;;;;;6213663;23;20001;-77
2024/02/19 02:44:08;;;;;;;0.60;0.60;;;6.90;99.90;;;;;;6212835;23;20483;-77
2024/02/19 02:46:34;;;;;;;0.67;0.63;;;6.90;99.90;;;;;;6213917;23;20035;-76
2024/02/19 02:48:59;;;;;;;1.50;0.60;;;6.90;99.90;;;;;;6213510;23;20088;-77
2024/02/19 02:51:25;;;;;;;0.60;0.60;;;6.90;99.90;;;;;;6213465;23;20012;-77
2024/02/19 02:53:51;;;;;;;3.00;0.80;;;6.90;99.90;;;;;;6213419;23;20344;-77
2024/02/19 02:56:20;;;;;;;2.20;0.60;;;6.90;99.90;;;;;;6213144;23;20008;-77
2024/02/19 02:58:49;;;;;;;0.73;0.70;;;6.90;99.90;;;;;;6213084;23;20371;-76
2024/02/19 03:01:26;;;;;;;0.70;0.70;;;6.90;99.90;;;;;;6213851;23;20005;-77
2024/02/19 03:03:51;;;;;;;0.70;0.70;;;6.90;99.90;;;;;;6213064;23;20003;-76
2024/02/19 03:06:17;;;;;;;1.00;0.70;;;6.90;99.90;;;;;;6213070;23;19996;-77
2024/02/19 03:08:43;;;;;;;0.70;0.70;;;6.90;99.90;;;;;;6213698;23;20058;-78
2024/02/19 03:11:09;;;;;;;0.60;0.60;;;6.90;99.90;;;;;;6213344;23;20001;-77
2024/02/19 03:13:34;;;;;;;2.53;0.80;;;6.90;99.90;;;;;;6211935;23;20443;-76
2024/02/19 03:16:01;;;;;;;1.43;0.80;;;6.90;99.90;;;;;;6210535;23;20055;-77
2024/02/19 03:18:26;;;;;;;2.13;1.00;;;6.80;99.90;;;;;;6214141;23;20332;-77
2024/02/19 03:20:52;;;;;;;3.23;1.00;;;6.80;99.90;;;;;;6214921;23;20007;-76
2024/02/19 03:23:18;;;;;;;1.00;0.80;;;6.80;99.90;;;;;;6215268;23;20007;-77
2024/02/19 03:25:44;;;;;;;1.00;0.90;;;6.80;99.90;;;;;;6214876;23;20030;-77
2024/02/19 03:28:10;;;;;;;0.90;0.83;;;6.80;99.90;;;;;;6215206;23;20378;-77
2024/02/19 03:30:36;;;;;;;1.13;0.80;;;6.80;99.90;;;;;;6214896;23;20027;-76
2024/02/19 03:33:02;;;;;;;1.00;0.90;;;6.80;99.90;;;;;;6215051;23;20011;-77
2024/02/19 03:35:27;;;;;;;1.40;1.00;;;6.80;99.90;;;;;;6214626;23;20063;-77
2024/02/19 03:37:53;;;;;;;0.80;0.80;;;6.80;99.90;;;;;;6215173;23;20088;-76
2024/02/19 03:40:19;;;;;;;1.67;1.00;;;6.80;99.90;;;;;;6215124;23;20001;-77
2024/02/19 03:42:44;;;;;;;1.40;0.77;;;6.80;99.90;;;;;;6214453;23;20005;-76
2024/02/19 03:45:10;;;;;;;1.50;1.00;;;6.80;99.90;;;;;;6214473;23;20024;-76
2024/02/19 03:47:36;;;;;;;1.53;0.90;;;6.90;99.90;;;;;;6214665;23;20515;-77
2024/02/19 03:50:02;;;;;;;1.47;1.00;;;6.90;99.90;;;;;;6214627;23;20377;-77
2024/02/19 03:52:28;;;;;;;1.50;1.10;;;6.90;99.90;;;;;;6215189;23;20031;-77
2024/02/19 03:54:54;;;;;;;1.07;0.90;;;6.90;99.90;;;;;;6214305;23;19997;-76
2024/02/19 03:57:22;;;;;;;1.23;0.90;;;6.90;99.90;;;;;;6214713;23;20007;-77
2024/02/19 03:59:48;;;;;;;1.57;0.90;;;6.90;99.90;;;;;;6214833;23;20005;-76
2024/02/19 04:02:14;;;;;;;1.20;0.90;;;6.90;99.90;;;;;;6214910;23;20072;-76
2024/02/19 04:04:39;;;;;;;2.13;0.83;;;6.90;99.90;;;;;;6213887;23;20089;-76
2024/02/19 04:07:05;;;;;;;1.73;0.90;;;7.00;99.90;;;;;;6214863;23;20001;-77
2024/02/19 04:09:31;;;;;;;1.97;1.20;;;7.00;99.90;;;;;;6214530;23;20011;-76
2024/02/19 04:11:57;;;;;;;3.77;1.23;;;7.00;99.90;;;;;;6215027;23;20009;-76
2024/02/19 04:14:24;;;;;;;2.93;1.20;;;7.00;99.90;;;;;;6214286;23;21788;-77
2024/02/19 04:16:50;;;;;;;1.40;1.10;;;7.00;99.90;;;;;;6214521;23;20503;-76
2024/02/19 04:19:17;;;;;;;3.03;1.30;;;7.00;99.90;;;;;;6214736;23;20013;-76
2024/02/19 04:21:44;;;;;;;3.03;1.30;;;7.00;99.90;;;;;;6214872;23;20054;-77
2024/02/19 04:24:11;;;;;;;2.67;1.50;;;7.00;99.90;;;;;;6214230;23;19997;-77
2024/02/19 04:26:37;;;;;;;2.33;1.20;;;7.00;99.90;;;;;;6215417;23;20010;-76
2024/02/19 04:29:02;;;;;;;2.23;1.10;;;7.00;99.90;;;;;;6214733;23;20331;-77
2024/02/19 04:31:28;;;;;;;2.10;1.30;;;7.00;99.90;;;;;;6215168;23;20435;-76
2024/02/19 04:33:53;;;;;;;1.63;1.17;;;7.00;99.90;;;;;;6214100;23;20004;-76
2024/02/19 04:36:19;;;;;;;1.67;1.33;;;7.00;99.90;;;;;;6214671;23;20004;-77
2024/02/19 04:38:44;;;;;;;1.27;1.10;;;7.00;99.90;;;;;;6214068;23;20016;-77
2024/02/19 04:41:10;;;;;;;1.23;1.13;;;7.00;99.90;;;;;;6214658;23;20000;-77
2024/02/19 04:43:36;;;;;;;1.87;1.27;;;7.00;99.90;;;;;;6214015;23;20004;-76
2024/02/19 04:46:02;;;;;;;2.23;1.50;;;7.00;99.90;;;;;;6214076;23;19997;-77
2024/02/19 04:48:28;;;;;;;1.97;1.40;;;7.10;99.90;;;;;;6214073;23;20055;-77
2024/02/19 04:50:54;;;;;;;1.90;1.37;;;7.00;99.90;;;;;;6214823;23;20355;-76
2024/02/19 04:53:19;;;;;;;1.97;1.57;;;7.10;99.90;;;;;;6213811;23;20001;-76
2024/02/19 04:55:45;;;;;;;1.60;1.33;;;7.10;99.90;;;;;;6213426;23;20058;-77
2024/02/19 04:58:11;;;;;;;3.53;1.53;;;7.20;99.90;;;;;;6214457;23;19997;-77
2024/02/19 05:00:37;;;;;;;1.67;1.30;;;7.20;99.90;;;;;;6214097;23;19996;-77
2024/02/19 05:03:04;;;;;;;1.63;1.33;;;7.20;99.90;;;;;;6214440;23;20028;-77
2024/02/19 05:05:30;;;;;;;2.77;1.53;;;7.30;99.90;;;;;;6213829;23;20001;-77
2024/02/19 05:07:55;;;;;;;2.67;1.60;;;7.30;99.90;;;;;;6213373;23;20454;-76
2024/02/19 05:10:21;;;;;;;2.03;1.50;;;7.30;99.90;;;;;;6214051;23;20031;-76
2024/02/19 05:12:46;;;;;;;2.60;1.50;;;7.40;99.90;;;;;;6213849;23;19997;-77
2024/02/19 05:15:12;;;;;;;2.90;1.50;;;7.40;99.90;;;;;;6213563;23;20008;-77
2024/02/19 05:17:38;;;;;;;1.83;1.43;;;7.40;99.90;;;;;;6213584;23;20012;-77
2024/02/19 05:20:07;;;;;;;1.87;1.40;;;7.50;99.90;;;;;;6213300;23;20100;-77
2024/02/19 05:22:33;;;;;;;1.87;1.50;;;7.60;99.90;;;;;;6213832;23;20108;-77
2024/02/19 05:24:59;;;;;;;1.70;1.40;;;7.70;99.90;;;;;;6213441;23;20000;-77
2024/02/19 05:27:25;;;;;;;2.20;1.80;;;7.60;99.90;;;;;;6213937;23;20013;-77
2024/02/19 05:29:51;;;;;;;2.17;1.40;;;7.60;99.90;;;;;;6213736;23;20370;-77
2024/02/19 05:32:17;;;;;;;2.20;1.63;;;7.60;99.90;;;;;;6213192;23;20084;-77
2024/02/19 05:34:42;;;;;;;1.73;1.40;;;7.60;99.90;;;;;;6211993;23;19997;-77
2024/02/19 05:37:08;;;;;;;2.70;1.50;;;7.60;99.90;;;;;;6213215;23;20007;-76
2024/02/19 05:39:33;;;;;;;1.63;1.40;;;7.60;99.90;;;;;;6213504;23;20059;-77
2024/02/19 05:42:00;;;;;;;1.40;1.20;;;7.70;99.90;;;;;;6213187;23;20020;-77
2024/02/19 05:44:25;;;;;;;2.13;1.53;;;7.70;99.90;;;;;;6212955;23;20008;-77
2024/02/19 05:46:51;;;;;;;2.90;1.83;;;7.70;99.90;;;;;;6204582;23;20518;-77
2024/02/19 05:49:16;;;;;;;1.97;1.37;;;7.70;99.90;;;;;;6210569;23;19997;-77
2024/02/19 05:51:42;;;;;;;1.80;1.20;;;7.70;99.90;;;;;;6213088;23;20008;-77
2024/02/19 05:54:07;;;;;;;2.17;1.50;;;7.70;99.90;;;;;;6212946;23;20000;-77
2024/02/19 05:56:33;;;;;;;4.23;1.70;;;7.70;99.90;;;;;;6212867;23;20011;-77
2024/02/19 05:59:00;;;;;;;3.07;1.63;;;7.80;99.90;;;;;;6213567;23;20028;-77
2024/02/19 06:01:25;;;;;;;2.70;1.50;;;7.70;99.90;;;;;;6213328;23;20414;-68
2024/02/19 06:03:51;;;;;;;3.90;1.60;;;7.80;99.90;;;;;;6212945;23;20016;-68
2024/02/19 06:06:16;;;;;;;1.93;1.40;;;7.80;99.90;;;;;;6212585;23;20324;-68
2024/02/19 06:08:42;;;;;;;2.43;1.97;;;7.80;99.90;;;;;;6213929;23;20007;-73
2024/02/19 06:11:08;;;;;;;2.20;1.60;;;7.70;99.90;;;;;;6213457;23;20031;-73
2024/02/19 06:13:33;;;;;;;2.73;1.67;;;7.70;99.90;;;;;;6213246;23;20001;-73
2024/02/19 06:15:59;;;;;;;2.33;1.63;;;7.80;99.90;;;;;;6211824;23;20024;-73
2024/02/19 06:18:25;;;;;;;2.20;1.53;;;7.80;99.90;;;;;;6213377;23;20009;-73
2024/02/19 06:20:51;;;;;;;1.80;1.40;;;7.70;99.90;;;;;;6213272;23;20043;-73
2024/02/19 06:23:16;;;;;;;1.80;1.40;;;7.70;99.90;;;;;;6213529;23;20000;-73
2024/02/19 06:25:43;;;;;;;4.17;1.60;;;7.70;99.90;;;;;;6212670;23;20370;-73
2024/02/19 06:28:09;;;;;;;3.77;1.60;;;7.70;99.90;;;;;;6213396;23;20047;-73
2024/02/19 06:30:37;;;;;;;3.17;1.60;;;7.70;99.90;;;;;;6211140;23;20004;-73
2024/02/19 06:33:04;;;;;;;3.40;1.50;;;7.70;99.90;;;;;;6212796;23;20009;-74
2024/02/19 06:35:29;;;;;;;2.17;1.50;;;7.60;99.90;;;;;;6212361;23;20013;-73
2024/02/19 06:37:55;;;;;;;4.40;1.40;;;7.60;99.90;;;;;;6213314;23;20378;-73
2024/02/19 06:40:21;;;;;;;1.90;1.60;;;7.60;99.90;;;;;;6212851;23;20019;-74
2024/02/19 06:42:47;;;;;;;3.40;1.40;;;7.50;99.90;;;;;;6213223;23;19997;-74
2024/02/19 06:45:12;;;;;;;2.47;1.60;;;7.60;99.90;;;;;;6212874;23;20023;-73
2024/02/19 06:47:40;;;;;;;2.43;1.20;;;7.50;99.90;;;;;;6213872;23;20356;-73
2024/02/19 06:50:06;;;;;;;2.00;1.40;;;7.60;99.90;;;;;;6213364;23;20031;-74
2024/02/19 06:52:32;;;;;;;2.27;1.47;;;7.60;99.90;;;;;;6213618;23;20004;-73
2024/02/19 06:54:57;;;;;;;1.60;1.17;;;7.60;99.90;;;;;;6214633;23;20000;-73
2024/02/19 06:57:23;;;;;;;2.23;1.17;;;7.60;99.90;;;;;;6215221;23;20003;-74
2024/02/19 06:59:48;;;;;;;3.73;1.10;;;7.60;99.90;;;;;;6215977;23;20004;-74
2024/02/19 07:02:14;;;;;;;2.30;1.00;;;7.70;99.90;;;;;;6215250;23;20068;-74
2024/02/19 07:04:40;;;;;;;1.73;1.00;;;7.70;99.90;;;;;;6214739;23;20511;-74
2024/02/19 07:07:09;;;;;;;1.27;1.10;;;7.70;99.90;;;;;;6215388;23;20005;-75
2024/02/19 07:09:38;;;;;;;3.87;0.93;;;7.60;99.90;;;;;;6215521;23;20019;-77
2024/02/19 07:12:05;;;;;;;2.07;1.23;;;7.70;99.90;;;;;;6215047;23;19997;-78
2024/02/19 07:14:30;;;;;;;1.03;0.93;;;7.70;99.90;;;;;;6214797;23;20024;-77
2024/02/19 07:16:56;;;;;;;2.93;1.20;;;7.70;99.90;;;;;;6214870;23;20475;-78
2024/02/19 07:19:21;;;;;;;1.83;1.13;;;7.60;99.90;;;;;;6215133;23;20431;-77
2024/02/19 07:21:48;;;;;;;2.20;0.90;;;7.70;99.90;;;;;;6214929;23;20100;-77
2024/02/19 07:24:13;;;;;;;1.03;0.90;;;7.70;99.90;;;;;;6214642;23;20005;-78
2024/02/19 07:26:39;;;;;;;3.23;0.97;;;7.70;99.90;;;;;;6215198;23;20012;-78
2024/02/19 07:29:04;;;;;;;1.00;0.90;;;7.80;99.90;;;;;;6215171;23;20426;-77
2024/02/19 07:31:30;;;;;;;1.10;1.00;;;7.80;99.90;;;;;;6214946;23;20427;-78
2024/02/19 07:33:56;;;;;;;1.27;1.10;;;7.80;99.90;;;;;;6214868;23;20427;-78
2024/02/19 07:36:22;;;;;;;1.47;1.00;;;7.80;99.90;;;;;;6214548;23;20000;-77
2024/02/19 07:38:47;;;;;;;2.80;1.20;;;7.90;99.90;;;;;;6215073;23;20419;-77
2024/02/19 07:41:17;;;;;;;2.33;1.30;;;7.90;99.90;;;;;;6214531;23;20001;-78
2024/02/19 07:43:43;;;;;;;2.20;1.40;;;8.00;99.90;;;;;;6214204;23;20107;-76
2024/02/19 07:46:09;;;;;;;1.63;1.20;;;8.00;99.90;;;;;;6211889;23;20005;-78
2024/02/19 07:48:35;;;;;;;2.27;1.40;;;8.00;99.90;;;;;;6214091;23;20301;-78
2024/02/19 07:51:00;;;;;;;2.27;1.43;;;8.10;99.90;;;;;;6214304;23;20008;-79
2024/02/19 07:53:26;;;;;;;3.17;1.40;;;8.10;99.90;;;;;;6214441;23;20005;-78
2024/02/19 07:56:05;;;;;;;3.70;1.60;;;8.10;99.90;;;;;;6213447;23;20007;-78
2024/02/19 07:58:31;;;;;;;2.00;1.40;;;8.20;99.90;;;;;;6213968;23;20004;-78
2024/02/19 08:00:57;;;;;;;2.93;1.50;;;8.20;99.90;;;;;;6214903;23;20001;-78
2024/02/19 08:03:22;;;;;;;1.90;1.40;;;8.20;99.90;;;;;;6215207;23;20440;-78
2024/02/19 08:05:48;;;;;;;3.23;1.60;;;8.40;99.90;;;;;;6213243;23;19996;-78
2024/02/19 08:08:15;;;;;;;2.43;1.50;;;8.40;99.90;;;;;;6214681;23;20000;-78
2024/02/19 08:10:41;;;;;;;1.90;1.47;;;8.40;99.90;;;;;;6214657;23;20027;-78
2024/02/19 08:13:08;;;;;;;3.80;1.50;;;8.30;99.90;;;;;;6214216;23;20410;-79
2024/02/19 08:15:37;;;;;;;4.90;2.17;;;8.40;99.90;;;;;;6213170;23;20004;-79
2024/02/19 08:18:03;;;;;;;3.70;1.40;;;8.40;99.90;;;;;;6214570;23;20008;-79
2024/02/19 08:20:29;;;;;;;2.70;1.40;;;8.40;99.90;;;;;;6214669;23;20011;-78
2024/02/19 08:22:55;;;;;;;2.53;1.67;;;8.40;99.90;;;;;;6215075;23;20087;-80
2024/02/19 08:25:20;;;;;;;3.57;1.53;;;8.40;99.90;;;;;;6210193;23;20008;-79
2024/02/19 08:27:46;;;;;;;4.87;1.77;;;8.50;99.90;;;;;;6213165;23;20001;-79
2024/02/19 08:30:11;;;;;;;4.83;1.87;;;8.60;99.90;;;;;;6214024;23;20176;-79
2024/02/19 08:32:37;;;;;;;3.33;2.00;;;8.70;99.90;;;;;;6214595;23;20059;-79
2024/02/19 08:35:03;;;;;;;6.77;2.03;;;8.70;99.90;;;;;;6214155;23;20104;-79
2024/02/19 08:37:29;;;;;;;3.77;1.73;;;8.70;99.90;;;;;;6214695;23;20009;-78
2024/02/19 08:39:54;;;;;;;2.63;1.80;;;8.70;99.90;;;;;;6214902;23;20004;-79
2024/02/19 08:42:20;;;;;;;5.30;2.13;;;8.70;99.90;;;;;;6215002;23;20001;-79
2024/02/19 08:44:45;;;;;;;6.33;2.17;;;8.80;99.90;;;;;;6214885;23;20009;-79
2024/02/19 08:47:11;;;;;;;4.30;2.00;;;8.80;99.90;;;;;;6215809;23;20309;-79
2024/02/19 08:49:37;;;;;;;4.17;1.90;;;8.80;99.90;;;;;;6215817;23;20419;-79
2024/02/19 08:52:04;;;;;;;4.33;1.90;;;8.80;99.90;;;;;;6216845;23;19992;-79
2024/02/19 08:54:30;;;;;;;4.27;2.20;;;8.80;99.90;;;;;;6216109;23;20001;-80
2024/02/19 08:56:55;;;;;;;3.83;2.50;;;8.80;99.90;;;;;;6216079;23;20452;-79
2024/02/19 08:59:21;;;;;;;6.93;2.40;;;8.70;99.90;;;;;;6216654;23;20009;-79
2024/02/19 09:01:46;;;;;;;4.33;2.20;;;8.70;99.90;;;;;;6217279;23;20004;-79
2024/02/19 09:04:12;;;;;;;4.00;1.97;;;8.70;99.90;;;;;;6216912;23;20004;-79
2024/02/19 09:06:37;;;;;;;5.63;3.00;;;8.70;99.90;;;;;;6215660;23;20008;-79
2024/02/19 09:09:03;;;;;;;4.40;2.43;;;8.70;99.90;;;;;;6217342;23;20074;-79
2024/02/19 09:11:28;;;;;;;4.13;2.00;;;8.80;99.90;;;;;;6216451;23;20530;-79
2024/02/19 09:13:54;;;;;;;3.43;1.87;;;8.80;99.90;;;;;;6216327;23;20004;-80
2024/02/19 09:16:19;;;;;;;4.63;1.80;;;8.70;99.90;;;;;;6215546;23;20067;-79
2024/02/19 09:18:45;;;;;;;4.67;2.40;;;8.80;99.90;;;;;;6216189;23;20080;-80
2024/02/19 09:21:10;;;;;;;3.80;1.80;;;8.80;99.90;;;;;;6216591;23;20020;-79
2024/02/19 09:23:36;;;;;;;4.67;1.80;;;8.70;99.90;;;;;;6217463;23;20028;-80
2024/02/19 09:26:02;;;;;;;4.90;2.40;;;8.80;99.90;;;;;;6215725;23;20004;-79
2024/02/19 09:28:27;;;;;;;5.17;1.77;;;8.80;99.90;;;;;;6216907;23;20011;-79
2024/02/19 09:30:53;;;;;;;3.80;1.80;;;8.80;99.90;;;;;;6216725;23;20008;-79
2024/02/19 09:33:19;;;;;;;3.17;1.77;;;8.90;99.90;;;;;;6217379;23;20008;-79
2024/02/19 09:35:47;;;;;;;4.03;1.80;;;8.90;99.90;;;;;;6216623;23;20004;-79
2024/02/19 09:38:16;;;;;;;2.43;1.67;;;9.00;99.90;;;;;;6216351;23;19997;-80
2024/02/19 09:40:44;;;;;;;3.00;1.67;;;9.10;99.90;;;;;;6217245;23;20016;-80
2024/02/19 09:43:10;;;;;;;2.80;1.37;;;9.20;99.90;;;;;;6216807;23;20006;-80
2024/02/19 09:45:37;;;;;;;6.03;2.07;;;9.30;99.90;;;;;;6216194;23;20004;-79
2024/02/19 09:48:03;;;;;;;6.20;1.50;;;9.50;99.90;;;;;;6217401;23;20000;-80
2024/02/19 09:50:31;;;;;;;1.73;1.17;;;9.50;99.90;;;;;;6216508;23;20023;-80
2024/02/19 09:53:08;;;;;;;2.63;1.10;;;9.60;99.90;;;;;;6216963;23;20000;-80
2024/02/19 09:55:34;;;;;;;2.70;1.43;;;9.80;99.90;;;;;;6216297;23;19997;-80
2024/02/19 09:58:00;;;;;;;2.27;1.10;;;9.80;99.90;;;;;;6217324;23;20450;-80
2024/02/19 10:00:26;;;;;;;3.67;1.20;;;9.90;99.90;;;;;;6217472;23;20032;-80
2024/02/19 10:02:53;;;;;;;3.03;1.53;;;9.90;99.90;;;;;;6213149;23;20004;-80
2024/02/19 10:05:19;;;;;;;1.53;0.80;;;10.00;99.90;;;;;;6212467;23;20107;-79
2024/02/19 10:07:45;;;;;;;2.80;1.20;;;10.00;99.90;;;;;;6215809;23;20005;-80
2024/02/19 10:10:12;;;;;;;3.13;1.27;;;10.00;99.90;;;;;;6217328;23;20420;-80
2024/02/19 10:12:42;;;;;;;2.13;1.00;;;10.10;99.90;;;;;;6217428;23;20003;-80
2024/02/19 10:15:08;;;;;;;1.47;0.90;;;10.30;99.90;;;;;;6216907;23;19996;-80
2024/02/19 10:17:33;;;;;;;1.27;0.90;;;10.40;99.90;;;;;;6217233;23;20339;-80
2024/02/19 10:20:06;;;;;;;2.30;0.90;;;10.50;99.90;;;;;;6218478;23;20084;-80
2024/02/19 10:22:32;;;;;;;9.03;1.57;;;10.40;99.90;;;;;;6217807;23;20003;-80
2024/02/19 10:25:03;;;;;;;1.37;1.00;;;10.30;99.90;;;;;;6216748;23;20493;-80
2024/02/19 10:27:30;;;;;;;2.40;1.23;;;10.20;99.90;;;;;;6217503;23;20024;-80
2024/02/19 10:29:56;;;;;;;1.37;0.90;;;10.10;99.90;;;;;;6217973;23;20005;-80
2024/02/19 10:32:22;;;;;;;3.27;1.10;;;9.90;99.90;;;;;;6217070;23;20372;-80
2024/02/19 10:34:48;;;;;;;2.03;1.10;;;9.80;99.90;;;;;;6216961;23;20008;-80
2024/02/19 10:37:14;;;;;;;3.33;1.23;;;9.80;99.90;;;;;;6217846;23;19996;-80
2024/02/19 10:39:40;;;;;;;3.17;1.20;;;9.80;99.90;;;;;;6217907;23;20009;-80
2024/02/19 10:42:06;;;;;;;1.53;1.00;;;9.80;99.90;;;;;;6218114;23;20079;-80
2024/02/19 10:44:34;;;;;;;2.43;1.07;;;9.70;99.90;;;;;;6217475;23;20024;-80
2024/02/19 10:47:01;;;;;;;3.23;1.20;;;9.70;99.90;;;;;;6218895;23;20000;-80
2024/02/19 10:49:26;;;;;;;1.80;1.10;;;9.70;99.90;;;;;;6218520;23;20343;-80
2024/02/19 10:51:52;;;;;;;2.03;1.00;;;9.70;99.90;;;;;;6218381;23;20007;-79
2024/02/19 10:54:18;;;;;;;1.37;0.90;;;9.70;99.90;;;;;;6217136;23;20079;-79
2024/02/19 10:56:44;;;;;;;4.73;1.20;;;9.70;99.90;;;;;;6218514;23;19998;-80
2024/02/19 10:59:14;;;;;;;4.50;1.20;;;9.70;99.90;;;;;;6217440;23;20008;-77
2024/02/19 11:01:44;;;;;;;3.63;1.30;;;9.70;99.90;;;;;;6213781;23;20087;-78
2024/02/19 11:04:20;;;;;;;3.93;1.43;;;9.70;99.90;;;;;;6213059;23;20022;-78
2024/02/19 11:06:53;;;;;;;3.73;1.30;;;9.70;99.90;;;;;;6213023;23;20427;-76
2024/02/19 11:09:20;;;;;;;3.83;1.37;;;9.70;99.90;;;;;;6213510;23;20031;-77
2024/02/19 11:11:50;;;;;;;2.57;1.27;;;9.70;99.90;;;;;;6213152;23;20058;-77
2024/02/19 11:14:24;;;;;;;3.13;1.40;;;9.70;99.90;;;;;;6212896;23;20064;-77
2024/02/19 11:16:50;;;;;;;5.10;1.10;;;9.80;99.90;;;;;;6212749;23;20012;-77
2024/02/19 11:19:18;;;;;;;3.63;1.20;;;9.90;99.90;;;;;;6213675;23;20017;-77
2024/02/19 11:21:44;;;;;;;4.13;1.10;;;10.10;99.90;;;;;;6213683;23;20001;-77
2024/02/19 11:24:11;;;;;;;3.23;1.30;;;10.10;99.90;;;;;;6212495;23;20007;-77
2024/02/19 11:26:41;;;;;;;3.20;1.57;;;10.10;99.90;;;;;;6213566;23;20004;-77
2024/02/19 11:29:13;;;;;;;5.73;1.33;;;10.10;99.90;;;;;;6213357;23;20012;-77
2024/02/19 11:31:39;;;;;;;4.77;1.30;;;10.20;99.90;;;;;;6213604;23;20008;-77
2024/02/19 11:34:20;;;;;;;2.37;1.33;;;10.10;99.90;;;;;;6212603;23;20331;-77
2024/02/19 11:36:46;;;;;;;3.13;1.50;;;10.10;99.90;;;;;;6213742;23;20024;-77
2024/02/19 11:39:13;;;;;;;6.63;2.03;;;10.10;99.90;;;;;;6213502;23;20013;-77
2024/02/19 11:41:42;;;;;;;3.30;1.40;;;10.00;99.90;;;;;;6214593;23;20004;-77
2024/02/19 11:44:12;;;;;;;5.53;1.40;;;10.00;99.90;;;;;;6214550;23;20010;-77
2024/02/19 11:46:41;;;;;;;4.37;1.80;;;9.90;99.90;;;;;;6214176;23;20458;-77
2024/02/19 11:49:08;;;;;;;3.37;1.30;;;9.80;99.90;;;;;;6214426;23;20055;-77
2024/02/19 11:51:35;;;;;;;3.50;1.60;;;9.80;99.90;;;;;;6213818;23;20007;-76
2024/02/19 11:54:01;;;;;;;4.00;1.63;;;9.70;99.90;;;;;;6212398;23;20000;-77
2024/02/19 11:56:27;;;;;;;3.40;1.30;;;9.70;99.90;;;;;;6213736;23;20024;-77
2024/02/19 11:58:52;;;;;;;3.73;1.40;;;9.70;99.90;;;;;;6214238;23;20416;-77
2024/02/19 12:01:21;;;;;;;3.03;1.27;;;9.70;99.90;;;;;;6213257;23;20008;-77
2024/02/19 12:03:47;;;;;;;2.77;1.30;;;9.70;99.90;;;;;;6212958;23;20005;-77
2024/02/19 12:06:12;;;;;;;2.27;1.20;;;9.60;99.90;;;;;;6210780;23;20008;-77
2024/02/19 12:08:39;;;;;;;4.30;1.17;;;9.60;99.90;;;;;;6213332;23;20475;-77
2024/02/19 12:11:08;;;;;;;6.30;1.40;;;9.50;99.90;;;;;;6214027;23;20013;-77
2024/02/19 12:13:35;;;;;;;1.97;1.07;;;9.40;99.90;;;;;;6214990;23;20039;-78
2024/02/19 12:16:02;;;;;;;2.30;1.13;;;9.50;99.90;;;;;;6213937;23;20047;-77
2024/02/19 12:18:28;;;;;;;3.77;1.30;;;9.60;99.90;;;;;;6214591;23;20004;-77
2024/02/19 12:20:54;;;;;;;2.50;1.10;;;9.80;99.90;;;;;;6214569;23;20001;-77
2024/02/19 12:23:20;;;;;;;3.40;1.20;;;9.90;99.90;;;;;;6214421;23;20457;-77
2024/02/19 12:25:45;;;;;;;4.57;1.53;;;9.90;99.90;;;;;;6214175;23;20024;-77
2024/02/19 12:28:11;;;;;;;2.00;1.10;;;9.70;99.90;;;;;;6214456;23;20004;-77
2024/02/19 12:30:37;;;;;;;2.40;1.00;;;9.60;99.90;;;;;;6214658;23;20086;-77
2024/02/19 12:33:03;;;;;;;3.33;1.03;;;9.70;99.90;;;;;;6214341;23;20007;-77
2024/02/19 12:35:28;;;;;;;3.70;1.17;;;9.60;99.90;;;;;;6213596;23;20079;-77
2024/02/19 12:37:54;;;;;;;3.43;1.10;;;9.60;99.90;;;;;;6214771;23;20042;-77
2024/02/19 12:40:19;;;;;;;1.73;0.90;;;9.50;99.90;;;;;;6214402;23;20032;-77
2024/02/19 12:42:45;;;;;;;3.93;1.20;;;9.60;99.90;;;;;;6214300;23;20004;-77
2024/02/19 12:45:10;;;;;;;3.17;1.20;;;9.60;99.90;;;;;;6213912;23;20438;-78
2024/02/19 12:47:36;;;;;;;2.53;1.03;;;9.70;99.90;;;;;;6214402;23;20009;-77
2024/02/19 12:50:03;;;;;;;3.37;1.30;;;10.00;99.90;;;;;;6214155;23;20392;-78